sensor_id;sensor_type;location;lat;lon;timestamp;P1;durP1;ratioP1;P2;durP2;ratioP2
10617;SDS011;5356;43.526;26.534;2023-04-03T00:01:22;7.35;;;4.28;;
10617;SDS011;5356;43.526;26.534;2023-04-03T00:03:48;6.13;;;3.83;;
10617;SDS011;5356;43.526;26.534;2023-04-03T00:06:13;6.82;;;4.10;;
10617;SDS011;5356;43.526;26.534;2023-04-03T00:08:39;7.57;;;4.20;;
10617;SDS011;5356;43.526;26.534;2023-04-03T00:11:05;9.13;;;4.20;;
10617;SDS011;5356;43.526;26.534;2023-04-03T00:13:32;6.97;;;4.25;;
10617;SDS011;5356;43.526;26.534;2023-04-03T00:15:58;6.15;;;4.22;;
10617;SDS011;5356;43.526;26.534;2023-04-03T00:18:23;7.07;;;3.95;;
10617;SDS011;5356;43.526;26.534;2023-04-03T00:20:49;5.97;;;4.30;;
10617;SDS011;5356;43.526;26.534;2023-04-03T00:23:15;6.13;;;4.25;;
10617;SDS011;5356;43.526;26.534;2023-04-03T00:25:40;7.40;;;4.13;;
10617;SDS011;5356;43.526;26.534;2023-04-03T00:28:06;5.18;;;4.00;;
10617;SDS011;5356;43.526;26.534;2023-04-03T00:30:32;3.83;;;3.20;;
10617;SDS011;5356;43.526;26.534;2023-04-03T00:32:58;3.92;;;3.17;;
10617;SDS011;5356;43.526;26.534;2023-04-03T00:35:23;5.90;;;3.63;;
10617;SDS011;5356;43.526;26.534;2023-04-03T00:37:50;4.90;;;3.20;;
10617;SDS011;5356;43.526;26.534;2023-04-03T00:40:17;6.95;;;3.30;;
10617;SDS011;5356;43.526;26.534;2023-04-03T00:42:43;5.97;;;3.47;;
10617;SDS011;5356;43.526;26.534;2023-04-03T00:47:43;8.88;;;4.45;;
10617;SDS011;5356;43.526;26.534;2023-04-03T00:50:09;7.70;;;4.60;;
10617;SDS011;5356;43.526;26.534;2023-04-03T00:52:34;8.43;;;4.93;;
10617;SDS011;5356;43.526;26.534;2023-04-03T00:55:03;6.95;;;4.50;;
10617;SDS011;5356;43.526;26.534;2023-04-03T00:57:32;9.82;;;4.97;;
10617;SDS011;5356;43.526;26.534;2023-04-03T00:59:59;6.20;;;4.53;;
10617;SDS011;5356;43.526;26.534;2023-04-03T01:02:34;8.77;;;5.32;;
10617;SDS011;5356;43.526;26.534;2023-04-03T01:04:59;6.63;;;4.00;;
10617;SDS011;5356;43.526;26.534;2023-04-03T01:07:29;8.60;;;4.72;;
10617;SDS011;5356;43.526;26.534;2023-04-03T01:09:57;8.45;;;4.10;;
10617;SDS011;5356;43.526;26.534;2023-04-03T01:12:34;8.02;;;3.97;;
10617;SDS011;5356;43.526;26.534;2023-04-03T01:15:08;6.75;;;4.53;;
10617;SDS011;5356;43.526;26.534;2023-04-03T01:17:38;8.18;;;4.78;;
10617;SDS011;5356;43.526;26.534;2023-04-03T01:25:39;7.40;;;4.25;;
10617;SDS011;5356;43.526;26.534;2023-04-03T01:33:25;5.38;;;3.55;;
10617;SDS011;5356;43.526;26.534;2023-04-03T01:35:51;7.88;;;3.38;;
10617;SDS011;5356;43.526;26.534;2023-04-03T01:38:17;5.95;;;3.53;;
10617;SDS011;5356;43.526;26.534;2023-04-03T01:40:42;5.75;;;3.63;;
10617;SDS011;5356;43.526;26.534;2023-04-03T01:43:08;5.38;;;3.75;;
10617;SDS011;5356;43.526;26.534;2023-04-03T01:45:34;7.00;;;5.35;;
10617;SDS011;5356;43.526;26.534;2023-04-03T01:48:20;6.50;;;3.60;;
10617;SDS011;5356;43.526;26.534;2023-04-03T01:50:49;7.50;;;3.78;;
10617;SDS011;5356;43.526;26.534;2023-04-03T01:53:18;5.70;;;3.50;;
10617;SDS011;5356;43.526;26.534;2023-04-03T01:55:44;6.70;;;4.07;;
10617;SDS011;5356;43.526;26.534;2023-04-03T01:58:10;4.15;;;2.85;;
10617;SDS011;5356;43.526;26.534;2023-04-03T02:00:37;9.13;;;4.75;;
10617;SDS011;5356;43.526;26.534;2023-04-03T02:03:02;6.85;;;3.70;;
10617;SDS011;5356;43.526;26.534;2023-04-03T02:05:28;6.35;;;3.42;;
10617;SDS011;5356;43.526;26.534;2023-04-03T02:07:54;4.28;;;2.95;;
10617;SDS011;5356;43.526;26.534;2023-04-03T02:10:44;4.93;;;2.90;;
10617;SDS011;5356;43.526;26.534;2023-04-03T02:20:42;4.78;;;3.45;;
10617;SDS011;5356;43.526;26.534;2023-04-03T02:23:41;3.53;;;2.58;;
10617;SDS011;5356;43.526;26.534;2023-04-03T02:30:08;5.63;;;3.15;;
10617;SDS011;5356;43.526;26.534;2023-04-03T02:50:14;5.28;;;3.65;;
10617;SDS011;5356;43.526;26.534;2023-04-03T03:56:17;10.80;;;5.40;;
10617;SDS011;5356;43.526;26.534;2023-04-03T03:59:41;9.43;;;5.70;;
10617;SDS011;5356;43.526;26.534;2023-04-03T04:13:30;6.22;;;3.80;;
10617;SDS011;5356;43.526;26.534;2023-04-03T04:16:16;6.93;;;4.13;;
10617;SDS011;5356;43.526;26.534;2023-04-03T04:19:16;9.30;;;4.68;;
10617;SDS011;5356;43.526;26.534;2023-04-03T04:22:23;14.90;;;6.95;;
10617;SDS011;5356;43.526;26.534;2023-04-03T04:28:11;7.40;;;4.80;;
10617;SDS011;5356;43.526;26.534;2023-04-03T04:30:40;7.70;;;4.38;;
10617;SDS011;5356;43.526;26.534;2023-04-03T04:33:06;12.77;;;5.70;;
10617;SDS011;5356;43.526;26.534;2023-04-03T04:35:32;6.90;;;4.70;;
10617;SDS011;5356;43.526;26.534;2023-04-03T04:37:59;9.05;;;5.10;;
10617;SDS011;5356;43.526;26.534;2023-04-03T04:40:25;10.43;;;4.43;;
10617;SDS011;5356;43.526;26.534;2023-04-03T04:42:51;10.50;;;4.57;;
10617;SDS011;5356;43.526;26.534;2023-04-03T04:45:19;8.02;;;4.32;;
10617;SDS011;5356;43.526;26.534;2023-04-03T04:47:47;6.75;;;3.75;;
10617;SDS011;5356;43.526;26.534;2023-04-03T04:50:25;9.77;;;3.80;;
10617;SDS011;5356;43.526;26.534;2023-04-03T04:52:51;5.35;;;3.60;;
10617;SDS011;5356;43.526;26.534;2023-04-03T04:55:22;6.03;;;3.60;;
10617;SDS011;5356;43.526;26.534;2023-04-03T04:57:47;6.20;;;3.50;;
10617;SDS011;5356;43.526;26.534;2023-04-03T05:00:20;8.02;;;3.78;;
10617;SDS011;5356;43.526;26.534;2023-04-03T05:02:49;14.18;;;5.65;;
10617;SDS011;5356;43.526;26.534;2023-04-03T05:05:15;15.38;;;6.90;;
10617;SDS011;5356;43.526;26.534;2023-04-03T05:07:40;16.63;;;7.40;;
10617;SDS011;5356;43.526;26.534;2023-04-03T05:10:06;14.88;;;6.80;;
10617;SDS011;5356;43.526;26.534;2023-04-03T05:12:32;10.88;;;6.85;;
10617;SDS011;5356;43.526;26.534;2023-04-03T05:15:03;12.07;;;5.90;;
10617;SDS011;5356;43.526;26.534;2023-04-03T05:17:29;14.70;;;8.20;;
10617;SDS011;5356;43.526;26.534;2023-04-03T05:20:02;14.23;;;7.47;;
10617;SDS011;5356;43.526;26.534;2023-04-03T05:22:30;11.10;;;6.32;;
10617;SDS011;5356;43.526;26.534;2023-04-03T05:24:56;9.70;;;5.43;;
10617;SDS011;5356;43.526;26.534;2023-04-03T05:27:21;13.15;;;5.43;;
10617;SDS011;5356;43.526;26.534;2023-04-03T05:29:49;11.65;;;5.85;;
10617;SDS011;5356;43.526;26.534;2023-04-03T05:32:15;15.77;;;6.63;;
10617;SDS011;5356;43.526;26.534;2023-04-03T05:34:41;14.07;;;6.82;;
10617;SDS011;5356;43.526;26.534;2023-04-03T05:37:07;15.15;;;8.95;;
10617;SDS011;5356;43.526;26.534;2023-04-03T05:39:32;15.18;;;9.65;;
10617;SDS011;5356;43.526;26.534;2023-04-03T05:41:58;25.20;;;17.15;;
10617;SDS011;5356;43.526;26.534;2023-04-03T05:44:24;14.30;;;10.48;;
10617;SDS011;5356;43.526;26.534;2023-04-03T05:46:50;10.80;;;6.68;;
10617;SDS011;5356;43.526;26.534;2023-04-03T05:49:15;25.13;;;14.18;;
10617;SDS011;5356;43.526;26.534;2023-04-03T05:51:41;22.38;;;11.20;;
10617;SDS011;5356;43.526;26.534;2023-04-03T05:54:12;27.30;;;14.15;;
10617;SDS011;5356;43.526;26.534;2023-04-03T05:56:43;14.63;;;9.10;;
10617;SDS011;5356;43.526;26.534;2023-04-03T05:59:08;9.90;;;6.65;;
10617;SDS011;5356;43.526;26.534;2023-04-03T06:01:34;10.73;;;5.60;;
10617;SDS011;5356;43.526;26.534;2023-04-03T06:04:00;18.48;;;10.88;;
10617;SDS011;5356;43.526;26.534;2023-04-03T06:06:25;15.57;;;8.13;;
10617;SDS011;5356;43.526;26.534;2023-04-03T06:08:51;14.25;;;6.43;;
10617;SDS011;5356;43.526;26.534;2023-04-03T06:11:17;38.22;;;17.10;;
10617;SDS011;5356;43.526;26.534;2023-04-03T06:13:42;28.10;;;16.30;;
10617;SDS011;5356;43.526;26.534;2023-04-03T06:16:09;37.08;;;19.98;;
10617;SDS011;5356;43.526;26.534;2023-04-03T06:18:40;31.70;;;17.58;;
10617;SDS011;5356;43.526;26.534;2023-04-03T06:21:06;22.85;;;12.05;;
10617;SDS011;5356;43.526;26.534;2023-04-03T06:23:32;26.60;;;16.27;;
10617;SDS011;5356;43.526;26.534;2023-04-03T06:25:58;18.75;;;12.02;;
10617;SDS011;5356;43.526;26.534;2023-04-03T06:28:24;17.65;;;11.75;;
10617;SDS011;5356;43.526;26.534;2023-04-03T06:30:50;18.27;;;9.25;;
10617;SDS011;5356;43.526;26.534;2023-04-03T06:33:15;19.10;;;9.57;;
10617;SDS011;5356;43.526;26.534;2023-04-03T06:35:41;12.80;;;7.68;;
10617;SDS011;5356;43.526;26.534;2023-04-03T06:38:07;8.55;;;6.00;;
10617;SDS011;5356;43.526;26.534;2023-04-03T06:40:34;16.05;;;10.88;;
10617;SDS011;5356;43.526;26.534;2023-04-03T06:43:01;7.65;;;5.63;;
10617;SDS011;5356;43.526;26.534;2023-04-03T06:45:26;13.55;;;3.70;;
10617;SDS011;5356;43.526;26.534;2023-04-03T06:47:53;6.28;;;3.40;;
10617;SDS011;5356;43.526;26.534;2023-04-03T06:50:18;6.60;;;3.38;;
10617;SDS011;5356;43.526;26.534;2023-04-03T06:52:44;10.30;;;6.20;;
10617;SDS011;5356;43.526;26.534;2023-04-03T06:55:10;30.25;;;17.77;;
10617;SDS011;5356;43.526;26.534;2023-04-03T06:57:36;7.57;;;5.18;;
10617;SDS011;5356;43.526;26.534;2023-04-03T07:00:03;8.95;;;7.60;;
10617;SDS011;5356;43.526;26.534;2023-04-03T07:02:30;11.57;;;8.13;;
10617;SDS011;5356;43.526;26.534;2023-04-03T07:04:56;9.77;;;4.60;;
10617;SDS011;5356;43.526;26.534;2023-04-03T07:07:22;8.38;;;5.22;;
10617;SDS011;5356;43.526;26.534;2023-04-03T07:09:47;5.93;;;4.18;;
10617;SDS011;5356;43.526;26.534;2023-04-03T07:12:13;6.30;;;4.25;;
10617;SDS011;5356;43.526;26.534;2023-04-03T07:14:39;13.07;;;5.07;;
10617;SDS011;5356;43.526;26.534;2023-04-03T07:17:04;7.20;;;4.35;;
10617;SDS011;5356;43.526;26.534;2023-04-03T07:19:30;4.13;;;2.35;;
10617;SDS011;5356;43.526;26.534;2023-04-03T07:21:56;4.50;;;2.47;;
10617;SDS011;5356;43.526;26.534;2023-04-03T07:24:22;5.32;;;2.83;;
10617;SDS011;5356;43.526;26.534;2023-04-03T07:26:51;4.47;;;2.33;;
10617;SDS011;5356;43.526;26.534;2023-04-03T07:29:17;3.08;;;2.50;;
10617;SDS011;5356;43.526;26.534;2023-04-03T07:31:43;3.75;;;2.20;;
10617;SDS011;5356;43.526;26.534;2023-04-03T07:34:09;4.10;;;2.00;;
10617;SDS011;5356;43.526;26.534;2023-04-03T07:36:35;4.32;;;2.25;;
10617;SDS011;5356;43.526;26.534;2023-04-03T07:39:01;6.40;;;2.80;;
10617;SDS011;5356;43.526;26.534;2023-04-03T07:41:27;8.32;;;4.88;;
10617;SDS011;5356;43.526;26.534;2023-04-03T07:43:53;10.95;;;4.65;;
10617;SDS011;5356;43.526;26.534;2023-04-03T07:46:19;29.63;;;9.35;;
10617;SDS011;5356;43.526;26.534;2023-04-03T07:48:45;16.75;;;5.18;;
10617;SDS011;5356;43.526;26.534;2023-04-03T07:51:11;20.85;;;5.38;;
10617;SDS011;5356;43.526;26.534;2023-04-03T07:53:36;4.93;;;2.70;;
10617;SDS011;5356;43.526;26.534;2023-04-03T07:56:02;4.15;;;2.00;;
10617;SDS011;5356;43.526;26.534;2023-04-03T07:58:28;3.22;;;2.15;;
10617;SDS011;5356;43.526;26.534;2023-04-03T08:00:53;3.03;;;1.90;;
10617;SDS011;5356;43.526;26.534;2023-04-03T08:03:19;5.22;;;1.52;;
10617;SDS011;5356;43.526;26.534;2023-04-03T08:05:46;2.28;;;1.50;;
10617;SDS011;5356;43.526;26.534;2023-04-03T08:08:15;3.63;;;1.63;;
10617;SDS011;5356;43.526;26.534;2023-04-03T08:10:42;8.27;;;3.10;;
10617;SDS011;5356;43.526;26.534;2023-04-03T08:13:08;5.45;;;2.20;;
10617;SDS011;5356;43.526;26.534;2023-04-03T08:15:34;3.40;;;1.98;;
10617;SDS011;5356;43.526;26.534;2023-04-03T08:18:00;2.78;;;1.60;;
10617;SDS011;5356;43.526;26.534;2023-04-03T08:20:26;1.42;;;1.25;;
10617;SDS011;5356;43.526;26.534;2023-04-03T08:22:52;4.95;;;1.98;;
10617;SDS011;5356;43.526;26.534;2023-04-03T08:25:17;1.88;;;1.50;;
10617;SDS011;5356;43.526;26.534;2023-04-03T08:27:43;20.67;;;6.35;;
10617;SDS011;5356;43.526;26.534;2023-04-03T08:30:09;2.88;;;2.08;;
10617;SDS011;5356;43.526;26.534;2023-04-03T08:32:35;2.17;;;1.67;;
10617;SDS011;5356;43.526;26.534;2023-04-03T08:35:02;6.70;;;2.42;;
10617;SDS011;5356;43.526;26.534;2023-04-03T08:37:28;3.30;;;1.90;;
10617;SDS011;5356;43.526;26.534;2023-04-03T08:39:53;1.77;;;1.50;;
10617;SDS011;5356;43.526;26.534;2023-04-03T08:50:07;3.30;;;2.15;;
10617;SDS011;5356;43.526;26.534;2023-04-03T08:55:12;22.42;;;5.50;;
10617;SDS011;5356;43.526;26.534;2023-04-03T08:57:40;4.68;;;2.28;;
10617;SDS011;5356;43.526;26.534;2023-04-03T09:02:46;2.47;;;2.28;;
10617;SDS011;5356;43.526;26.534;2023-04-03T09:05:15;3.88;;;1.55;;
10617;SDS011;5356;43.526;26.534;2023-04-03T09:07:44;4.95;;;1.90;;
10617;SDS011;5356;43.526;26.534;2023-04-03T09:10:14;3.13;;;1.63;;
10617;SDS011;5356;43.526;26.534;2023-04-03T09:12:53;2.28;;;1.60;;
10617;SDS011;5356;43.526;26.534;2023-04-03T09:15:28;4.65;;;2.20;;
10617;SDS011;5356;43.526;26.534;2023-04-03T09:22:57;8.93;;;5.47;;
10617;SDS011;5356;43.526;26.534;2023-04-03T09:25:25;7.97;;;3.42;;
10617;SDS011;5356;43.526;26.534;2023-04-03T09:27:59;2.33;;;1.98;;
10617;SDS011;5356;43.526;26.534;2023-04-03T09:30:26;2.15;;;1.58;;
10617;SDS011;5356;43.526;26.534;2023-04-03T09:32:53;4.05;;;2.80;;
10617;SDS011;5356;43.526;26.534;2023-04-03T09:40:44;3.25;;;2.30;;
10617;SDS011;5356;43.526;26.534;2023-04-03T09:45:43;3.55;;;2.20;;
10617;SDS011;5356;43.526;26.534;2023-04-03T09:55:58;8.07;;;5.57;;
10617;SDS011;5356;43.526;26.534;2023-04-03T09:58:32;2.53;;;2.10;;
10617;SDS011;5356;43.526;26.534;2023-04-03T10:01:02;2.20;;;1.65;;
10617;SDS011;5356;43.526;26.534;2023-04-03T10:03:30;3.28;;;1.77;;
10617;SDS011;5356;43.526;26.534;2023-04-03T10:05:59;1.65;;;1.55;;
10617;SDS011;5356;43.526;26.534;2023-04-03T10:08:27;2.58;;;1.60;;
10617;SDS011;5356;43.526;26.534;2023-04-03T10:13:49;2.17;;;1.70;;
10617;SDS011;5356;43.526;26.534;2023-04-03T10:16:20;2.78;;;1.90;;
10617;SDS011;5356;43.526;26.534;2023-04-03T10:24:14;2.50;;;1.30;;
10617;SDS011;5356;43.526;26.534;2023-04-03T10:27:08;3.47;;;1.58;;
10617;SDS011;5356;43.526;26.534;2023-04-03T10:35:15;1.50;;;1.40;;
10617;SDS011;5356;43.526;26.534;2023-04-03T10:38:04;3.28;;;1.45;;
10617;SDS011;5356;43.526;26.534;2023-04-03T10:40:50;3.72;;;1.40;;
10617;SDS011;5356;43.526;26.534;2023-04-03T10:52:09;2.47;;;1.83;;
10617;SDS011;5356;43.526;26.534;2023-04-03T10:57:32;1.40;;;1.30;;
10617;SDS011;5356;43.526;26.534;2023-04-03T10:59:58;12.20;;;8.80;;
10617;SDS011;5356;43.526;26.534;2023-04-03T11:02:31;5.00;;;3.75;;
10617;SDS011;5356;43.526;26.534;2023-04-03T11:05:03;8.93;;;2.72;;
10617;SDS011;5356;43.526;26.534;2023-04-03T11:07:36;6.63;;;3.42;;
10617;SDS011;5356;43.526;26.534;2023-04-03T11:10:10;3.45;;;1.42;;
10617;SDS011;5356;43.526;26.534;2023-04-03T11:12:46;5.10;;;3.83;;
10617;SDS011;5356;43.526;26.534;2023-04-03T11:15:17;2.85;;;2.33;;
10617;SDS011;5356;43.526;26.534;2023-04-03T11:17:55;2.03;;;1.33;;
10617;SDS011;5356;43.526;26.534;2023-04-03T11:20:27;4.13;;;2.85;;
10617;SDS011;5356;43.526;26.534;2023-04-03T11:25:29;3.92;;;3.13;;
10617;SDS011;5356;43.526;26.534;2023-04-03T11:28:04;4.35;;;2.90;;
10617;SDS011;5356;43.526;26.534;2023-04-03T11:33:24;3.78;;;2.10;;
10617;SDS011;5356;43.526;26.534;2023-04-03T11:36:39;2.35;;;1.92;;
10617;SDS011;5356;43.526;26.534;2023-04-03T11:38:54;3.60;;;1.80;;
10617;SDS011;5356;43.526;26.534;2023-04-03T11:41:27;3.45;;;2.25;;
10617;SDS011;5356;43.526;26.534;2023-04-03T11:44:03;6.95;;;2.72;;
10617;SDS011;5356;43.526;26.534;2023-04-03T11:55:36;8.20;;;4.60;;
10617;SDS011;5356;43.526;26.534;2023-04-03T12:05:48;7.18;;;3.22;;
10617;SDS011;5356;43.526;26.534;2023-04-03T12:08:27;5.13;;;2.53;;
10617;SDS011;5356;43.526;26.534;2023-04-03T12:13:40;12.57;;;3.60;;
10617;SDS011;5356;43.526;26.534;2023-04-03T12:16:19;4.43;;;1.95;;
10617;SDS011;5356;43.526;26.534;2023-04-03T12:45:40;3.20;;;1.50;;
10617;SDS011;5356;43.526;26.534;2023-04-03T12:48:17;2.25;;;1.00;;
10617;SDS011;5356;43.526;26.534;2023-04-03T12:50:47;1.40;;;1.00;;
10617;SDS011;5356;43.526;26.534;2023-04-03T12:53:18;2.85;;;1.30;;
10617;SDS011;5356;43.526;26.534;2023-04-03T12:55:47;1.63;;;1.17;;
10617;SDS011;5356;43.526;26.534;2023-04-03T12:58:19;2.30;;;1.50;;
10617;SDS011;5356;43.526;26.534;2023-04-03T13:00:58;3.10;;;1.38;;
10617;SDS011;5356;43.526;26.534;2023-04-03T13:03:28;2.58;;;1.10;;
10617;SDS011;5356;43.526;26.534;2023-04-03T13:05:59;4.25;;;1.40;;
10617;SDS011;5356;43.526;26.534;2023-04-03T13:08:26;8.68;;;2.92;;
10617;SDS011;5356;43.526;26.534;2023-04-03T13:13:25;2.00;;;1.38;;
10617;SDS011;5356;43.526;26.534;2023-04-03T13:15:51;5.85;;;1.55;;
10617;SDS011;5356;43.526;26.534;2023-04-03T13:18:26;3.40;;;1.60;;
10617;SDS011;5356;43.526;26.534;2023-04-03T13:21:37;1.80;;;1.45;;
10617;SDS011;5356;43.526;26.534;2023-04-03T13:23:46;1.25;;;1.08;;
10617;SDS011;5356;43.526;26.534;2023-04-03T13:26:15;1.45;;;1.33;;
10617;SDS011;5356;43.526;26.534;2023-04-03T13:28:42;7.60;;;4.35;;
10617;SDS011;5356;43.526;26.534;2023-04-03T13:33:39;8.50;;;4.70;;
10617;SDS011;5356;43.526;26.534;2023-04-03T13:36:18;2.75;;;1.98;;
10617;SDS011;5356;43.526;26.534;2023-04-03T13:38:57;3.10;;;2.28;;
10617;SDS011;5356;43.526;26.534;2023-04-03T13:41:35;4.22;;;2.60;;
10617;SDS011;5356;43.526;26.534;2023-04-03T13:44:15;5.00;;;2.60;;
10617;SDS011;5356;43.526;26.534;2023-04-03T13:46:50;4.80;;;2.65;;
10617;SDS011;5356;43.526;26.534;2023-04-03T13:49:18;7.28;;;2.67;;
10617;SDS011;5356;43.526;26.534;2023-04-03T13:51:45;5.35;;;2.42;;
10617;SDS011;5356;43.526;26.534;2023-04-03T13:54:24;5.90;;;3.17;;
10617;SDS011;5356;43.526;26.534;2023-04-03T13:56:56;2.90;;;2.63;;
10617;SDS011;5356;43.526;26.534;2023-04-03T13:59:24;5.07;;;2.70;;
10617;SDS011;5356;43.526;26.534;2023-04-03T14:01:55;6.70;;;3.60;;
10617;SDS011;5356;43.526;26.534;2023-04-03T14:04:22;5.55;;;3.95;;
10617;SDS011;5356;43.526;26.534;2023-04-03T14:06:51;4.03;;;2.55;;
10617;SDS011;5356;43.526;26.534;2023-04-03T14:09:18;6.13;;;3.58;;
10617;SDS011;5356;43.526;26.534;2023-04-03T14:11:44;6.35;;;3.25;;
10617;SDS011;5356;43.526;26.534;2023-04-03T14:14:18;8.73;;;3.90;;
10617;SDS011;5356;43.526;26.534;2023-04-03T14:16:48;8.07;;;3.50;;
10617;SDS011;5356;43.526;26.534;2023-04-03T14:19:22;4.85;;;3.15;;
10617;SDS011;5356;43.526;26.534;2023-04-03T14:21:50;3.63;;;2.72;;
10617;SDS011;5356;43.526;26.534;2023-04-03T14:24:17;6.18;;;3.47;;
10617;SDS011;5356;43.526;26.534;2023-04-03T14:26:44;7.00;;;3.95;;
10617;SDS011;5356;43.526;26.534;2023-04-03T14:29:11;5.68;;;3.95;;
10617;SDS011;5356;43.526;26.534;2023-04-03T14:31:38;6.20;;;3.88;;
10617;SDS011;5356;43.526;26.534;2023-04-03T14:34:04;4.57;;;3.10;;
10617;SDS011;5356;43.526;26.534;2023-04-03T14:36:30;5.75;;;3.67;;
10617;SDS011;5356;43.526;26.534;2023-04-03T14:38:57;5.95;;;3.80;;
10617;SDS011;5356;43.526;26.534;2023-04-03T14:41:23;9.05;;;2.90;;
10617;SDS011;5356;43.526;26.534;2023-04-03T14:43:51;10.68;;;3.47;;
10617;SDS011;5356;43.526;26.534;2023-04-03T14:49:02;3.90;;;2.42;;
10617;SDS011;5356;43.526;26.534;2023-04-03T14:51:34;8.77;;;4.43;;
10617;SDS011;5356;43.526;26.534;2023-04-03T14:54:00;6.60;;;3.30;;
10617;SDS011;5356;43.526;26.534;2023-04-03T14:56:26;9.52;;;3.72;;
10617;SDS011;5356;43.526;26.534;2023-04-03T14:58:57;10.95;;;4.15;;
10617;SDS011;5356;43.526;26.534;2023-04-03T15:01:25;6.30;;;3.85;;
10617;SDS011;5356;43.526;26.534;2023-04-03T15:03:51;7.68;;;5.20;;
10617;SDS011;5356;43.526;26.534;2023-04-03T15:06:16;5.88;;;3.40;;
10617;SDS011;5356;43.526;26.534;2023-04-03T15:08:42;6.82;;;3.17;;
10617;SDS011;5356;43.526;26.534;2023-04-03T15:11:10;4.90;;;3.55;;
10617;SDS011;5356;43.526;26.534;2023-04-03T15:13:36;5.15;;;2.70;;
10617;SDS011;5356;43.526;26.534;2023-04-03T15:16:03;7.22;;;3.00;;
10617;SDS011;5356;43.526;26.534;2023-04-03T15:18:31;6.10;;;3.45;;
10617;SDS011;5356;43.526;26.534;2023-04-03T15:21:02;7.60;;;5.50;;
10617;SDS011;5356;43.526;26.534;2023-04-03T15:23:28;9.60;;;5.63;;
10617;SDS011;5356;43.526;26.534;2023-04-03T15:25:55;13.13;;;7.85;;
10617;SDS011;5356;43.526;26.534;2023-04-03T15:30:52;7.00;;;4.20;;
10617;SDS011;5356;43.526;26.534;2023-04-03T15:33:18;8.30;;;4.95;;
10617;SDS011;5356;43.526;26.534;2023-04-03T15:35:43;7.63;;;5.13;;
10617;SDS011;5356;43.526;26.534;2023-04-03T15:38:09;7.45;;;5.43;;
10617;SDS011;5356;43.526;26.534;2023-04-03T15:40:35;8.95;;;5.95;;
10617;SDS011;5356;43.526;26.534;2023-04-03T15:43:01;8.52;;;6.13;;
10617;SDS011;5356;43.526;26.534;2023-04-03T15:45:28;9.35;;;5.90;;
10617;SDS011;5356;43.526;26.534;2023-04-03T15:47:55;11.75;;;7.00;;
10617;SDS011;5356;43.526;26.534;2023-04-03T15:50:20;9.98;;;5.65;;
10617;SDS011;5356;43.526;26.534;2023-04-03T15:52:48;10.73;;;5.95;;
10617;SDS011;5356;43.526;26.534;2023-04-03T15:55:21;8.45;;;6.10;;
10617;SDS011;5356;43.526;26.534;2023-04-03T15:57:47;7.43;;;5.18;;
10617;SDS011;5356;43.526;26.534;2023-04-03T16:00:13;9.95;;;5.75;;
10617;SDS011;5356;43.526;26.534;2023-04-03T16:02:40;9.15;;;6.13;;
10617;SDS011;5356;43.526;26.534;2023-04-03T16:05:06;9.38;;;5.85;;
10617;SDS011;5356;43.526;26.534;2023-04-03T16:07:32;10.05;;;6.65;;
10617;SDS011;5356;43.526;26.534;2023-04-03T16:09:58;10.27;;;7.00;;
10617;SDS011;5356;43.526;26.534;2023-04-03T16:12:23;8.95;;;6.47;;
10617;SDS011;5356;43.526;26.534;2023-04-03T16:14:49;10.65;;;7.45;;
10617;SDS011;5356;43.526;26.534;2023-04-03T16:17:14;11.23;;;7.07;;
10617;SDS011;5356;43.526;26.534;2023-04-03T16:19:40;8.98;;;6.75;;
10617;SDS011;5356;43.526;26.534;2023-04-03T16:22:08;11.07;;;7.47;;
10617;SDS011;5356;43.526;26.534;2023-04-03T16:24:33;8.98;;;6.60;;
10617;SDS011;5356;43.526;26.534;2023-04-03T16:27:00;10.45;;;7.63;;
10617;SDS011;5356;43.526;26.534;2023-04-03T16:29:26;12.13;;;6.47;;
10617;SDS011;5356;43.526;26.534;2023-04-03T16:31:51;10.77;;;7.00;;
10617;SDS011;5356;43.526;26.534;2023-04-03T16:34:17;7.78;;;5.97;;
10617;SDS011;5356;43.526;26.534;2023-04-03T16:36:42;7.97;;;5.60;;
10617;SDS011;5356;43.526;26.534;2023-04-03T16:39:10;13.07;;;7.57;;
10617;SDS011;5356;43.526;26.534;2023-04-03T16:41:36;13.73;;;7.30;;
10617;SDS011;5356;43.526;26.534;2023-04-03T16:44:01;11.80;;;6.97;;
10617;SDS011;5356;43.526;26.534;2023-04-03T16:46:27;10.60;;;6.85;;
10617;SDS011;5356;43.526;26.534;2023-04-03T16:48:53;14.50;;;8.20;;
10617;SDS011;5356;43.526;26.534;2023-04-03T16:51:18;10.82;;;6.95;;
10617;SDS011;5356;43.526;26.534;2023-04-03T16:53:44;11.23;;;7.00;;
10617;SDS011;5356;43.526;26.534;2023-04-03T16:56:10;11.35;;;7.00;;
10617;SDS011;5356;43.526;26.534;2023-04-03T16:58:35;12.23;;;7.03;;
10617;SDS011;5356;43.526;26.534;2023-04-03T17:01:17;11.27;;;7.13;;
10617;SDS011;5356;43.526;26.534;2023-04-03T17:03:45;13.82;;;8.88;;
10617;SDS011;5356;43.526;26.534;2023-04-03T17:06:11;11.73;;;8.30;;
10617;SDS011;5356;43.526;26.534;2023-04-03T17:08:41;13.15;;;8.05;;
10617;SDS011;5356;43.526;26.534;2023-04-03T17:11:08;12.35;;;8.20;;
10617;SDS011;5356;43.526;26.534;2023-04-03T17:13:34;14.45;;;8.77;;
10617;SDS011;5356;43.526;26.534;2023-04-03T17:16:00;12.85;;;8.18;;
10617;SDS011;5356;43.526;26.534;2023-04-03T17:18:30;11.55;;;7.78;;
10617;SDS011;5356;43.526;26.534;2023-04-03T17:20:56;12.60;;;8.25;;
10617;SDS011;5356;43.526;26.534;2023-04-03T17:23:23;12.73;;;8.68;;
10617;SDS011;5356;43.526;26.534;2023-04-03T17:25:50;16.90;;;9.55;;
10617;SDS011;5356;43.526;26.534;2023-04-03T17:28:16;12.80;;;7.80;;
10617;SDS011;5356;43.526;26.534;2023-04-03T17:30:41;17.40;;;10.48;;
10617;SDS011;5356;43.526;26.534;2023-04-03T17:33:07;10.73;;;8.05;;
10617;SDS011;5356;43.526;26.534;2023-04-03T17:35:32;18.33;;;8.75;;
10617;SDS011;5356;43.526;26.534;2023-04-03T17:37:58;14.95;;;8.02;;
10617;SDS011;5356;43.526;26.534;2023-04-03T17:40:23;11.73;;;8.18;;
10617;SDS011;5356;43.526;26.534;2023-04-03T17:42:48;12.15;;;8.15;;
10617;SDS011;5356;43.526;26.534;2023-04-03T17:45:14;11.07;;;6.53;;
10617;SDS011;5356;43.526;26.534;2023-04-03T17:47:40;11.85;;;7.40;;
10617;SDS011;5356;43.526;26.534;2023-04-03T17:50:05;10.55;;;6.53;;
10617;SDS011;5356;43.526;26.534;2023-04-03T17:52:31;9.32;;;5.80;;
10617;SDS011;5356;43.526;26.534;2023-04-03T17:54:57;9.57;;;5.45;;
10617;SDS011;5356;43.526;26.534;2023-04-03T17:57:23;9.02;;;5.75;;
10617;SDS011;5356;43.526;26.534;2023-04-03T17:59:49;7.60;;;4.80;;
10617;SDS011;5356;43.526;26.534;2023-04-03T18:02:17;6.22;;;4.28;;
10617;SDS011;5356;43.526;26.534;2023-04-03T18:04:43;7.10;;;4.68;;
10617;SDS011;5356;43.526;26.534;2023-04-03T18:07:08;6.38;;;3.47;;
10617;SDS011;5356;43.526;26.534;2023-04-03T18:09:36;8.68;;;3.97;;
10617;SDS011;5356;43.526;26.534;2023-04-03T18:12:03;4.22;;;3.00;;
10617;SDS011;5356;43.526;26.534;2023-04-03T18:14:31;4.57;;;2.97;;
10617;SDS011;5356;43.526;26.534;2023-04-03T18:16:58;4.88;;;3.13;;
10617;SDS011;5356;43.526;26.534;2023-04-03T18:19:24;4.78;;;3.35;;
10617;SDS011;5356;43.526;26.534;2023-04-03T18:21:54;5.72;;;3.92;;
10617;SDS011;5356;43.526;26.534;2023-04-03T18:24:21;6.15;;;4.18;;
10617;SDS011;5356;43.526;26.534;2023-04-03T18:26:51;9.75;;;5.10;;
10617;SDS011;5356;43.526;26.534;2023-04-03T18:29:21;8.63;;;5.00;;
10617;SDS011;5356;43.526;26.534;2023-04-03T18:31:49;7.32;;;4.75;;
10617;SDS011;5356;43.526;26.534;2023-04-03T18:34:18;6.07;;;4.05;;
10617;SDS011;5356;43.526;26.534;2023-04-03T18:36:43;6.28;;;4.82;;
10617;SDS011;5356;43.526;26.534;2023-04-03T18:39:10;11.23;;;5.60;;
10617;SDS011;5356;43.526;26.534;2023-04-03T18:41:36;6.82;;;4.20;;
10617;SDS011;5356;43.526;26.534;2023-04-03T18:44:02;8.65;;;4.60;;
10617;SDS011;5356;43.526;26.534;2023-04-03T18:46:31;6.90;;;4.40;;
10617;SDS011;5356;43.526;26.534;2023-04-03T18:48:57;7.85;;;4.13;;
10617;SDS011;5356;43.526;26.534;2023-04-03T18:51:23;9.55;;;4.45;;
10617;SDS011;5356;43.526;26.534;2023-04-03T18:53:50;7.25;;;4.63;;